LLIB/RPN METAR and TAF weather

Enter ICAO airport designator
Station Type Date Time Source
LLIB METAR 2019/04/20 15:50 UTC NOAA

LLIB 201550Z 27011KT 9999 SCT035 14/08 Q1013


Station Type Date Time Source
LLIB Decoded METAR 2019/04/20 15:50 UTC NOAA

Galilee / Pina, Israel (LLIB) 32-58-48N 035-34-12E
Apr 20, 2019 - 11:50 AM EDT / 2019.04.20 1550 UTC
Wind: from the W (270 degrees) at 13 MPH (11 KT):0
Visibility: greater than 7 mile(s):0
Sky conditions: partly cloudy
Temperature: 57 F (14 C)
Dew Point: 46 F (8 C)
Relative Humidity: 67%
Pressure (altimeter): 29.91 in. Hg (1013 hPa)
ob: LLIB 201550Z 27011KT 9999 SCT035 14/08 Q1013
cycle: 16

Station Type Date Time Source
LLIB TAF 2019/04/20 12:15 UTC NOAA

TAF LLIB 201109Z 2012/2112 25015KT 9999 SCT035
BECMG 2016/2018 23005KT 7000 BKN020 PROB40 2022/2106 23012KT 3000 RA BR SCT007 FEW010TCU BKN015 TX16/2012Z TN08/2103Z

Example: see airport list